Řízení letového provozu České republiky
Letiste: LKKV Aktualizace: 29.04.2017 05:11:04  UTC
 SPECI LKKV 29.04. 05:05 ...
SPECI LKKV 290505Z VRB01KT 0600 R29/0225N FG SCT002 01/01 Q1015 RMK REG QNH 1012=
 METAR LKKV 29.04. 05:00 ...
METAR LKKV 290500Z VRB01KT 0100 R29/0250 FG BKN001 01/00 Q1015 RMK REG QNH 1012=
 TAF LKKV 29.04. 05:00 ...
TAF LKKV 290500Z 2906/3012 22004KT 7000 NSC      TEMPO 2906/2907 1500 BR BKN007      PROB30 TEMPO 2906/2907 0800 FG BKN004      BECMG 2907/2909 9999 SCT030      TEMPO 2909/2917 33010G20KT 7000 SHRA FEW020TCU BKN025      BECMG 2918/2920 VRB02KT CAVOK      PROB30 TEMPO 3003/3005 5000 BR NSC=